Time;durP1;ratioP1;P1;durP2;ratioP2;P2;SDS_P1;SDS_P2;PMS_P1;PMS_P2;Temp;Humidity;BMP_temperature;BMP_pressure;BME280_temperature;BME280_humidity;BME280_pressure;Samples;Min_cycle;Max_cycle;Signal;HPM_P1;HPM_P2
2023/07/22 00:00:52;;;;;;;13.32;6.32;;;;;;;-141.84;84.36;20395.13;5013185;28;20272;-64
2023/07/22 00:03:20;;;;;;;6.95;5.80;;;;;;;-141.84;85.90;20350.41;5018437;28;20702;-64
2023/07/22 00:06:02;;;;;;;9.45;6.40;;;;;;;-141.84;87.42;20295.53;5015917;28;20222;-65
2023/07/22 00:08:31;;;;;;;8.93;6.38;;;;;;;-141.84;88.18;20313.84;5015764;28;20246;-63
2023/07/22 00:10:59;;;;;;;8.23;7.35;;;;;;;-141.84;88.54;20301.63;5011769;28;20304;-65
2023/07/22 00:13:28;;;;;;;12.20;6.70;;;;;;;-141.84;88.99;20295.53;5012894;28;20226;-65
2023/07/22 00:15:57;;;;;;;8.07;7.28;;;;;;;-141.84;88.72;20319.94;5002436;28;20321;-64
2023/07/22 00:18:27;;;;;;;8.30;7.50;;;;;;;-141.84;88.88;20273.19;5009502;28;20217;-65
2023/07/22 00:20:57;;;;;;;8.35;7.65;;;;;;;-141.84;89.58;20334.16;5013694;28;20229;-64
2023/07/22 00:23:26;;;;;;;8.35;7.65;;;;;;;-141.84;88.91;20265.03;5024163;28;20260;-65
2023/07/22 00:25:54;;;;;;;9.85;7.65;;;;;;;-141.84;89.31;20240.66;5012779;28;20275;-64
2023/07/22 00:28:23;;;;;;;8.73;7.80;;;;;;;-141.84;89.93;20271.16;5012712;28;20225;-64
2023/07/22 00:30:53;;;;;;;9.05;8.25;;;;;;;-141.84;89.90;20263.00;5018521;28;20694;-65
2023/07/22 00:33:23;;;;;;;8.82;8.10;;;;;;;-141.84;89.22;20263.00;5010018;28;20777;-64
2023/07/22 00:35:52;;;;;;;8.82;8.13;;;;;;;-141.84;89.77;20216.25;5014665;28;20207;-65
2023/07/22 00:38:21;;;;;;;10.10;8.73;;;;;;;-141.84;90.23;20265.03;5004750;28;20237;-64
2023/07/22 00:40:50;;;;;;;9.55;8.73;;;;;;;-141.84;89.92;20244.72;5012026;28;20886;-64
2023/07/22 00:43:19;;;;;;;9.32;8.45;;;;;;;-141.84;89.46;20234.56;5016101;28;20218;-64
2023/07/22 00:45:47;;;;;;;9.45;8.50;;;;;;;-141.84;89.60;20254.88;5010316;28;20300;-64
2023/07/22 00:48:17;;;;;;;8.60;7.90;;;;;;;-141.84;89.86;20240.66;5003361;28;20257;-63
2023/07/22 00:50:45;;;;;;;9.18;8.27;;;;;;;-141.84;89.98;20226.44;5013461;28;20222;-64
2023/07/22 00:53:14;;;;;;;9.68;8.88;;;;;;;-141.84;90.29;20200.00;5014285;28;20242;-65
2023/07/22 00:55:45;;;;;;;9.50;8.60;;;;;;;-141.84;90.37;20254.88;5013993;28;20318;-64
2023/07/22 00:58:14;;;;;;;9.75;8.80;;;;;;;-141.84;90.38;20226.44;5009154;28;20242;-64
2023/07/22 01:00:43;;;;;;;10.90;9.82;;;;;;;-141.84;89.50;20260.97;5006665;28;20329;-64
2023/07/22 01:03:12;;;;;;;10.32;9.43;;;;;;;-141.84;88.91;20224.41;5015318;28;20230;-65
2023/07/22 01:05:42;;;;;;;10.02;9.23;;;;;;;-141.84;89.33;20222.38;5010201;28;20226;-64
2023/07/22 01:08:11;;;;;;;10.40;9.50;;;;;;;-141.84;89.24;20244.72;5009739;28;20311;-64
2023/07/22 01:10:40;;;;;;;11.95;9.20;;;;;;;-141.84;89.52;20216.25;5007632;28;20236;-63
2023/07/22 01:13:09;;;;;;;11.17;9.67;;;;;;;-141.84;89.15;20236.59;5013999;28;20237;-65
2023/07/22 01:15:39;;;;;;;10.00;9.10;;;;;;;-141.84;89.04;20234.56;5018195;28;20409;-64
2023/07/22 01:18:08;;;;;;;10.25;9.35;;;;;;;-141.84;88.65;20208.13;5006076;28;20213;-65
2023/07/22 01:20:37;;;;;;;10.60;9.70;;;;;;;-141.84;88.47;20234.56;5010600;28;20670;-65
2023/07/22 01:23:08;;;;;;;9.47;8.77;;;;;;;-141.84;88.31;20238.63;5016775;28;20287;-65
2023/07/22 01:25:36;;;;;;;10.20;9.40;;;;;;;-141.84;88.40;20236.59;5020517;28;20701;-63
2023/07/22 01:28:10;;;;;;;10.50;9.60;;;;;;;-141.84;89.03;20242.69;5003981;28;20240;-63
2023/07/22 01:30:39;;;;;;;10.03;9.20;;;;;;;-141.84;88.96;20234.56;5016853;28;20267;-64
2023/07/22 01:33:08;;;;;;;10.50;9.50;;;;;;;-141.84;89.12;20263.00;5018926;28;20337;-65
2023/07/22 01:35:36;;;;;;;11.13;10.05;;;;;;;-141.84;89.42;20263.00;5015565;28;20583;-64
2023/07/22 01:38:07;;;;;;;11.63;9.90;;;;;;;-141.84;89.54;20244.72;5000564;28;20318;-64
2023/07/22 01:40:36;;;;;;;11.10;10.10;;;;;;;-141.84;89.43;20250.81;5011416;28;20798;-64
2023/07/22 01:43:04;;;;;;;10.38;9.45;;;;;;;-141.84;89.43;20267.09;5011715;28;22083;-65
2023/07/22 01:45:33;;;;;;;10.45;9.50;;;;;;;-141.84;89.59;20246.75;5017624;28;20320;-64
2023/07/22 01:48:01;;;;;;;10.80;9.80;;;;;;;-141.84;89.73;20236.59;5013487;28;20304;-65
2023/07/22 01:50:30;;;;;;;10.85;9.85;;;;;;;-141.84;90.02;20208.13;5012684;28;20232;-65
2023/07/22 01:52:59;;;;;;;10.60;9.57;;;;;;;-141.84;90.07;20195.94;5015548;28;20287;-65
2023/07/22 01:55:28;;;;;;;10.82;9.73;;;;;;;-141.84;89.84;20212.19;5020549;28;20273;-65
2023/07/22 01:57:57;;;;;;;11.87;10.63;;;;;;;-141.84;89.54;20230.50;5012366;28;20280;-64
2023/07/22 02:00:26;;;;;;;10.50;9.60;;;;;;;-141.84;88.83;20230.50;5016950;28;20607;-65
2023/07/22 02:02:55;;;;;;;10.80;9.18;;;;;;;-141.84;87.91;20267.09;5019354;28;20285;-64
2023/07/22 02:05:23;;;;;;;10.13;9.20;;;;;;;-141.84;85.76;20281.31;5022425;28;20733;-64
2023/07/22 02:07:55;;;;;;;10.77;9.77;;;;;;;-141.84;86.43;20265.03;5019994;28;20337;-64
2023/07/22 02:10:23;;;;;;;10.60;9.70;;;;;;;-141.84;86.69;20260.97;5020929;28;20234;-65
2023/07/22 02:12:53;;;;;;;9.88;8.85;;;;;;;-141.84;86.50;20218.31;5022031;28;20652;-65
2023/07/22 02:15:24;;;;;;;10.05;9.15;;;;;;;-141.84;86.50;20258.94;5020867;28;20317;-64
2023/07/22 02:17:55;;;;;;;9.77;8.88;;;;;;;-141.84;87.10;20210.16;5011933;28;20215;-64
2023/07/22 02:20:24;;;;;;;11.67;10.47;;;;;;;-141.84;87.36;20240.66;5012185;28;20230;-65
2023/07/22 02:22:52;;;;;;;10.82;9.35;;;;;;;-141.84;87.06;20244.72;5011800;28;20803;-64
2023/07/22 02:25:21;;;;;;;11.38;10.00;;;;;;;-141.84;85.75;20258.94;5013739;28;20234;-65
2023/07/22 02:27:49;;;;;;;10.48;9.43;;;;;;;-141.84;86.37;20252.84;5014694;28;20368;-65
2023/07/22 02:30:19;;;;;;;10.90;9.95;;;;;;;-141.84;86.34;20269.13;5006360;28;20532;-64
2023/07/22 02:32:48;;;;;;;10.95;9.82;;;;;;;-141.84;84.25;20305.69;5013730;28;20725;-64
2023/07/22 02:35:16;;;;;;;10.45;9.55;;;;;;;-141.84;84.12;20342.28;5009247;28;20279;-64
2023/07/22 02:37:45;;;;;;;11.45;9.80;;;;;;;-141.84;84.68;20283.34;5009875;28;20240;-64
2023/07/22 02:40:13;;;;;;;10.57;9.67;;;;;;;-141.84;83.66;20309.75;5004024;28;20646;-63
2023/07/22 02:42:42;;;;;;;11.90;9.63;;;;;;;-141.84;84.30;20289.44;5013413;28;20226;-65
2023/07/22 02:45:12;;;;;;;10.37;9.40;;;;;;;-141.84;84.08;20309.75;5013050;28;20210;-64
2023/07/22 02:47:42;;;;;;;9.70;8.90;;;;;;;-141.84;84.30;20281.31;5011752;28;20599;-65
2023/07/22 02:50:11;;;;;;;10.55;9.57;;;;;;;-141.84;85.19;20307.72;5005753;28;20702;-64
2023/07/22 02:52:39;;;;;;;11.25;9.73;;;;;;;-141.84;85.97;20256.91;5021847;28;20352;-65
2023/07/22 02:55:13;;;;;;;11.93;10.02;;;;;;;-141.84;86.54;20277.25;5018420;28;20342;-64
2023/07/22 02:57:42;;;;;;;11.50;10.40;;;;;;;-141.84;86.43;20299.59;5020983;28;20292;-64
2023/07/22 03:00:12;;;;;;;11.63;10.52;;;;;;;-141.84;85.77;20315.88;5013731;28;20242;-64
2023/07/22 03:02:42;;;;;;;11.65;10.45;;;;;;;-141.84;83.94;20311.78;5022044;28;20217;-65
2023/07/22 03:05:11;;;;;;;10.98;9.85;;;;;;;-141.84;82.41;20334.16;5017675;28;20228;-63
2023/07/22 03:07:40;;;;;;;13.15;10.43;;;;;;;-141.84;83.05;20319.94;5020331;28;20237;-64
2023/07/22 03:10:09;;;;;;;13.23;11.70;;;;;;;-141.84;84.14;20301.63;5013740;28;20276;-65
2023/07/22 03:12:40;;;;;;;12.00;10.85;;;;;;;-141.84;84.51;20319.94;5018699;28;20230;-65
2023/07/22 03:15:09;;;;;;;11.68;10.75;;;;;;;-141.84;85.54;20269.13;5002224;28;20646;-64
2023/07/22 03:17:38;;;;;;;13.43;11.68;;;;;;;-141.84;86.11;20277.25;5013414;28;20297;-65
2023/07/22 03:20:14;;;;;;;13.35;11.93;;;;;;;-141.84;86.06;20254.88;5013728;28;20238;-64
2023/07/22 03:22:43;;;;;;;12.77;11.53;;;;;;;-141.84;86.03;20269.13;5024008;28;20225;-64
2023/07/22 03:25:12;;;;;;;12.52;11.25;;;;;;;-141.84;84.60;20328.06;5025256;28;20226;-66
2023/07/22 03:27:41;;;;;;;11.63;10.52;;;;;;;-141.84;85.09;20305.69;5025264;28;20242;-65
2023/07/22 03:30:11;;;;;;;13.27;11.37;;;;;;;-141.84;85.13;20273.19;5017351;28;20301;-64
2023/07/22 03:32:40;;;;;;;11.75;10.70;;;;;;;-141.84;84.22;20315.88;5025199;28;20649;-65
2023/07/22 03:35:11;;;;;;;11.30;10.20;;;;;;;-141.84;83.74;20307.72;5025309;28;20602;-63
2023/07/22 03:37:41;;;;;;;11.32;10.13;;;;;;;-141.84;83.41;20317.91;5025191;28;20280;-65
2023/07/22 03:40:19;;;;;;;10.77;9.85;;;;;;;-141.84;84.30;20273.19;5017700;28;20284;-64
2023/07/22 03:42:48;;;;;;;10.75;9.85;;;;;;;-141.84;84.78;20273.19;5024645;28;20307;-65
2023/07/22 03:45:17;;;;;;;10.70;9.80;;;;;;;-141.84;85.03;20301.63;5024488;28;20284;-65
2023/07/22 03:47:46;;;;;;;9.40;8.60;;;;;;;-141.84;85.04;20330.09;5023510;28;20233;-64
2023/07/22 03:50:16;;;;;;;10.18;9.32;;;;;;;-141.84;83.87;20307.72;5010721;28;20681;-64
2023/07/22 03:52:45;;;;;;;10.20;9.25;;;;;;;-141.84;84.33;20321.97;5004422;28;20234;-65
2023/07/22 03:55:13;;;;;;;10.32;9.32;;;;;;;-141.84;85.01;20267.09;5004890;28;20226;-64
2023/07/22 03:57:42;;;;;;;13.70;9.95;;;;;;;-141.84;85.45;20275.22;5004631;28;20308;-64
2023/07/22 04:00:11;;;;;;;10.52;9.48;;;;;;;-141.84;85.23;20263.00;4994594;28;20662;-64
2023/07/22 04:02:40;;;;;;;10.17;9.17;;;;;;;-141.84;85.28;20252.84;5004992;28;20642;-65
2023/07/22 04:05:09;;;;;;;12.23;9.45;;;;;;;-141.84;84.81;20303.66;5004526;28;20236;-64
2023/07/22 04:07:39;;;;;;;11.53;9.53;;;;;;;-141.84;84.26;20269.13;5004510;28;20234;-65
2023/07/22 04:10:08;;;;;;;11.77;9.60;;;;;;;-141.84;83.31;20281.31;5011817;28;20308;-64
2023/07/22 04:12:37;;;;;;;10.10;8.90;;;;;;;-141.84;84.43;20240.66;5024279;28;20500;-65
2023/07/22 04:15:11;;;;;;;11.10;9.97;;;;;;;-141.84;84.37;20254.88;5024100;28;20210;-66
2023/07/22 04:17:40;;;;;;;11.45;9.80;;;;;;;-141.84;84.53;20260.97;5024332;28;20212;-65
2023/07/22 04:20:09;;;;;;;10.50;9.40;;;;;;;-141.84;84.44;20297.56;5016931;28;20233;-64
2023/07/22 04:22:39;;;;;;;11.60;9.03;;;;;;;-141.84;83.22;20295.53;5024317;28;20339;-63
2023/07/22 04:25:09;;;;;;;9.68;8.85;;;;;;;-141.84;83.33;20287.41;5024266;28;20324;-65
2023/07/22 04:27:39;;;;;;;10.60;9.50;;;;;;;-141.84;83.22;20299.59;5024027;28;20765;-64
2023/07/22 04:30:08;;;;;;;12.50;9.10;;;;;;;-141.84;83.75;20279.28;5016125;28;20289;-65
2023/07/22 04:32:38;;;;;;;11.00;9.63;;;;;;;-141.84;81.97;20372.78;5023804;28;20238;-64
2023/07/22 04:35:08;;;;;;;10.87;9.87;;;;;;;-141.84;82.36;20344.31;5023450;28;20313;-65
2023/07/22 04:37:36;;;;;;;10.52;9.35;;;;;;;-141.84;82.12;20346.34;5024078;28;20240;-65
2023/07/22 04:40:13;;;;;;;10.18;9.18;;;;;;;-141.84;81.86;20326.03;5015929;28;20240;-64
2023/07/22 04:42:42;;;;;;;10.63;9.27;;;;;;;-141.84;81.32;20372.78;5023999;28;20720;-65
2023/07/22 04:45:12;;;;;;;10.27;9.27;;;;;;;-141.84;80.87;20378.88;5022824;28;20268;-63
2023/07/22 04:47:41;;;;;;;10.40;9.15;;;;;;;-141.84;80.09;20407.34;5021458;28;20284;-64
2023/07/22 04:50:10;;;;;;;10.25;9.18;;;;;;;-141.84;79.35;20423.59;5015720;28;20701;-64
2023/07/22 04:52:38;;;;;;;10.57;9.52;;;;;;;-141.84;80.97;20403.25;5023589;28;20241;-64
2023/07/22 04:55:10;;;;;;;12.90;9.45;;;;;;;-141.84;79.60;20441.88;5023491;28;20233;-63
2023/07/22 04:57:40;;;;;;;13.30;8.98;;;;;;;-141.84;78.50;20470.34;5023807;28;20296;-64
2023/07/22 05:00:11;;;;;;;13.63;9.88;;;;;;;-141.84;79.59;20533.34;5015585;28;20294;-64
2023/07/22 05:02:40;;;;;;;9.85;8.77;;;;;;;-141.84;72.46;20850.47;5023693;28;20285;-64
2023/07/22 05:05:09;;;;;;;7.45;6.20;;;;;;;-141.84;69.20;21131.03;5018683;28;20218;-64
2023/07/22 05:07:37;;;;;;;8.95;7.00;;;;;;;-141.84;59.93;21537.66;5003594;28;20300;-63
2023/07/22 05:10:11;;;;;;;7.30;6.57;;;;;;;-141.84;56.97;21791.81;5010390;28;20295;-64
2023/07/22 05:12:40;;;;;;;7.05;6.35;;;;;;;-141.84;53.84;21987.03;5023461;28;20232;-64
2023/07/22 05:15:11;;;;;;;8.43;5.95;;;;;;;-141.84;52.28;22107.00;5023707;28;20643;-64
2023/07/22 05:17:39;;;;;;;8.95;6.03;;;;;;;-141.84;51.12;22257.50;5009483;28;20214;-65
2023/07/22 05:20:10;;;;;;;6.38;5.78;;;;;;;-141.84;49.75;22403.94;4995538;28;20262;-65
2023/07/22 05:22:39;;;;;;;7.70;6.57;;;;;;;-141.84;49.34;22475.09;5003062;28;20669;-65
2023/07/22 05:25:10;;;;;;;6.43;5.78;;;;;;;-141.84;49.18;22444.59;5003460;28;20226;-65
2023/07/22 05:27:40;;;;;;;6.68;6.13;;;;;;;-141.84;49.07;22405.97;5002055;28;20292;-65
2023/07/22 05:30:09;;;;;;;7.15;6.00;;;;;;;-141.84;49.22;22379.53;4995929;28;20206;-64
2023/07/22 05:32:56;;;;;;;7.28;5.65;;;;;;;-141.84;50.31;22273.78;5003106;28;20715;-65
2023/07/22 05:35:24;;;;;;;7.32;6.53;;;;;;;-141.84;50.68;22170.06;5003449;28;20203;-65
2023/07/22 05:37:53;;;;;;;7.47;6.50;;;;;;;-141.84;53.00;21867.06;5003221;28;20562;-65
2023/07/22 05:40:23;;;;;;;7.72;7.00;;;;;;;-141.84;55.71;21631.19;5014472;28;20279;-64
2023/07/22 05:42:51;;;;;;;7.85;7.00;;;;;;;-141.84;58.18;21497.00;5022868;28;20218;-65
2023/07/22 05:45:20;;;;;;;9.45;7.32;;;;;;;-141.84;59.25;21397.38;5021714;28;20309;-65
2023/07/22 05:47:48;;;;;;;8.20;7.03;;;;;;;-141.84;60.18;21350.59;5010097;28;20242;-65
2023/07/22 05:50:17;;;;;;;8.80;7.53;;;;;;;-141.84;60.62;21330.28;5007315;28;20256;-64
2023/07/22 05:52:46;;;;;;;10.32;7.95;;;;;;;-141.84;60.92;21299.78;5022435;28;20257;-65
2023/07/22 05:55:14;;;;;;;8.55;7.65;;;;;;;-141.84;61.93;21259.13;5022310;28;20230;-64
2023/07/22 05:57:44;;;;;;;10.27;8.48;;;;;;;-141.84;62.00;21218.44;5022547;28;20229;-65
2023/07/22 06:00:14;;;;;;;9.27;8.23;;;;;;;-141.84;62.30;21214.38;5014949;28;20202;-63
2023/07/22 06:02:42;;;;;;;8.52;7.60;;;;;;;-141.84;63.34;21220.47;5006829;28;20342;-66
2023/07/22 06:05:11;;;;;;;8.70;7.88;;;;;;;-141.84;63.72;21228.63;5002501;28;20253;-64
2023/07/22 06:07:39;;;;;;;10.57;8.40;;;;;;;-141.84;63.04;21212.34;5003018;28;20238;-64
2023/07/22 06:10:09;;;;;;;11.73;8.15;;;;;;;-141.84;62.84;21255.03;5009977;28;20599;-64
2023/07/22 06:12:38;;;;;;;9.88;8.45;;;;;;;-141.84;63.19;21244.88;5022861;28;20234;-65
2023/07/22 06:15:09;;;;;;;9.88;7.72;;;;;;;-141.84;62.49;21269.28;5022177;28;20202;-65
2023/07/22 06:17:38;;;;;;;9.07;7.78;;;;;;;-141.84;61.66;21238.78;5011122;28;20589;-64
2023/07/22 06:20:08;;;;;;;9.25;7.82;;;;;;;-141.84;61.42;21218.44;4994998;28;20245;-65
2023/07/22 06:22:36;;;;;;;9.75;8.15;;;;;;;-141.84;61.27;21248.94;5002221;28;20265;-64
2023/07/22 06:25:06;;;;;;;8.05;6.97;;;;;;;-141.84;61.31;21271.31;5002570;28;20329;-65
2023/07/22 06:27:35;;;;;;;9.75;7.65;;;;;;;-141.84;60.70;21295.72;5002655;28;20230;-65
2023/07/22 06:30:04;;;;;;;8.93;7.13;;;;;;;-141.84;60.88;21281.47;4994079;28;20230;-64
2023/07/22 06:32:35;;;;;;;8.32;6.82;;;;;;;-141.84;61.10;21318.06;5003032;28;20310;-64
2023/07/22 06:35:03;;;;;;;8.13;6.65;;;;;;;-141.84;59.56;21283.50;5002618;28;20265;-66
2023/07/22 06:37:32;;;;;;;7.20;6.45;;;;;;;-141.84;58.85;21360.78;5002587;28;20669;-65
2023/07/22 06:40:01;;;;;;;7.00;6.30;;;;;;;-141.84;58.09;21320.09;4996667;28;20321;-64
2023/07/22 06:42:30;;;;;;;8.75;6.38;;;;;;;-141.84;57.95;21362.81;5006256;28;20523;-63
2023/07/22 06:44:58;;;;;;;7.18;6.32;;;;;;;-141.84;57.29;21356.69;5022010;28;20780;-65
2023/07/22 06:47:27;;;;;;;7.50;5.93;;;;;;;-141.84;57.65;21381.09;5022154;28;20253;-65
2023/07/22 06:49:57;;;;;;;8.80;6.53;;;;;;;-141.84;57.25;21417.69;5019168;28;20257;-65
2023/07/22 06:52:26;;;;;;;10.07;7.43;;;;;;;-141.84;57.23;21366.88;5022041;28;20337;-64
2023/07/22 06:54:54;;;;;;;7.60;6.10;;;;;;;-141.84;56.94;21417.69;5022103;28;20265;-64
2023/07/22 06:57:25;;;;;;;7.60;6.22;;;;;;;-141.84;55.86;21444.13;5022869;28;20227;-65
2023/07/22 06:59:55;;;;;;;8.65;5.97;;;;;;;-141.84;56.57;21488.88;5005970;28;20221;-69
2023/07/22 07:02:24;;;;;;;5.97;5.28;;;;;;;-141.84;56.14;21480.72;5004114;28;20301;-65
2023/07/22 07:04:53;;;;;;;6.00;5.40;;;;;;;-141.84;55.95;21517.31;5005993;28;20238;-65
2023/07/22 07:07:22;;;;;;;6.93;6.05;;;;;;;-141.84;53.63;21527.50;5006010;28;20321;-65
2023/07/22 07:09:51;;;;;;;6.47;5.88;;;;;;;-141.84;53.20;21541.72;5018822;28;20265;-65
2023/07/22 07:12:20;;;;;;;6.28;5.05;;;;;;;-141.84;52.72;21497.00;5019788;28;20671;-63
2023/07/22 07:14:51;;;;;;;6.40;5.65;;;;;;;-141.84;53.79;21533.59;5026035;28;20562;-64
2023/07/22 07:17:20;;;;;;;5.18;4.63;;;;;;;-141.84;52.33;21564.09;5016825;28;20313;-65
2023/07/22 07:19:48;;;;;;;5.85;4.82;;;;;;;-141.84;50.96;21576.28;5016478;28;20252;-65
2023/07/22 07:22:17;;;;;;;7.43;5.20;;;;;;;-141.84;51.70;21576.28;5018032;28;20284;-65
2023/07/22 07:24:47;;;;;;;7.38;4.80;;;;;;;-141.84;51.50;21480.72;5025357;28;20222;-64
2023/07/22 07:27:15;;;;;;;4.82;4.25;;;;;;;-141.84;52.55;21419.72;5025844;28;20226;-64
2023/07/22 07:29:44;;;;;;;5.85;4.40;;;;;;;-141.84;50.77;21460.41;5025759;28;20706;-63
2023/07/22 07:32:23;;;;;;;4.88;4.10;;;;;;;-141.84;51.53;21464.47;5021919;28;20230;-66
2023/07/22 07:34:52;;;;;;;6.70;4.15;;;;;;;-141.84;52.32;21468.53;5025498;28;20245;-63
2023/07/22 07:37:21;;;;;;;4.63;4.22;;;;;;;-141.84;51.97;21503.09;5024696;28;20303;-64
2023/07/22 07:39:50;;;;;;;6.88;4.75;;;;;;;-141.84;51.45;21525.47;5025208;28;20229;-64
2023/07/22 07:42:19;;;;;;;5.40;4.30;;;;;;;-141.84;51.92;21462.44;5017895;28;20233;-65
2023/07/22 07:44:48;;;;;;;5.88;4.43;;;;;;;-141.84;51.70;21543.75;5024900;28;20296;-66
2023/07/22 07:47:16;;;;;;;5.30;4.05;;;;;;;-141.84;52.04;21539.69;5024525;28;20229;-65
2023/07/22 07:49:45;;;;;;;4.85;4.18;;;;;;;-141.84;51.88;21637.28;5023834;28;20229;-64
2023/07/22 07:52:13;;;;;;;6.18;4.50;;;;;;;-141.84;51.17;21702.34;5017062;28;20316;-65
2023/07/22 07:54:42;;;;;;;6.38;4.78;;;;;;;-141.84;50.86;21696.25;5014185;28;20581;-64
2023/07/22 07:57:11;;;;;;;5.05;4.38;;;;;;;-141.84;50.76;21710.50;5006215;28;20682;-66
2023/07/22 07:59:40;;;;;;;4.97;3.85;;;;;;;-141.84;48.88;21702.34;5009227;28;20539;-65
2023/07/22 08:02:10;;;;;;;4.25;3.70;;;;;;;-141.84;48.34;21651.53;5006055;28;20231;-66
2023/07/22 08:04:38;;;;;;;5.03;3.55;;;;;;;-141.84;47.63;21635.25;5024152;28;20233;-64
2023/07/22 08:07:08;;;;;;;4.53;3.35;;;;;;;-141.84;47.70;21631.19;5020625;28;20764;-65
2023/07/22 08:09:37;;;;;;;3.28;2.92;;;;;;;-141.84;46.20;21657.63;5020968;28;20648;-64
2023/07/22 08:12:06;;;;;;;3.78;3.38;;;;;;;-141.84;45.67;21610.84;5018943;28;20673;-63
2023/07/22 08:14:36;;;;;;;4.82;3.58;;;;;;;-141.84;46.25;21612.88;5023625;28;20237;-65
2023/07/22 08:17:04;;;;;;;3.67;3.38;;;;;;;-141.84;46.07;21627.13;5023125;28;20249;-65
2023/07/22 08:19:33;;;;;;;4.38;3.63;;;;;;;-141.84;46.81;21553.94;5010601;28;20656;-66
2023/07/22 08:22:02;;;;;;;3.47;3.17;;;;;;;-141.84;46.78;21572.22;4996343;28;20670;-66
2023/07/22 08:24:32;;;;;;;4.72;3.60;;;;;;;-141.84;47.05;21633.22;5004724;28;20323;-65
2023/07/22 08:27:00;;;;;;;4.57;3.60;;;;;;;-141.84;47.48;21665.75;5004571;28;20207;-65
2023/07/22 08:29:29;;;;;;;5.18;3.88;;;;;;;-141.84;46.81;21675.94;5005075;28;20317;-65
2023/07/22 08:31:59;;;;;;;4.55;3.53;;;;;;;-141.84;47.83;21680.00;4998707;28;20314;-65
2023/07/22 08:34:27;;;;;;;4.00;3.60;;;;;;;-141.84;47.03;21706.44;5004297;28;20258;-64
2023/07/22 08:36:56;;;;;;;4.15;3.75;;;;;;;-141.84;46.73;21773.53;5005887;28;20363;-64
2023/07/22 08:39:25;;;;;;;4.43;3.60;;;;;;;-141.84;47.17;21767.44;5015110;28;20699;-66
2023/07/22 08:41:56;;;;;;;5.45;4.95;;;;;;;-141.84;47.48;21755.22;5025271;28;20209;-65
2023/07/22 08:44:31;;;;;;;4.65;4.03;;;;;;;-141.84;48.89;21712.53;5024224;28;20283;-65
2023/07/22 08:47:02;;;;;;;4.88;4.38;;;;;;;-141.84;48.00;21714.56;5023686;28;20229;-65
2023/07/22 08:49:30;;;;;;;4.75;4.00;;;;;;;-141.84;47.20;21732.84;5023707;28;20334;-65
2023/07/22 08:52:00;;;;;;;4.90;4.30;;;;;;;-141.84;47.85;21712.53;5014393;28;20254;-64
2023/07/22 08:54:29;;;;;;;4.80;4.30;;;;;;;-141.84;47.89;21667.78;5023549;28;20320;-66
2023/07/22 08:56:58;;;;;;;4.43;3.72;;;;;;;-141.84;46.91;21720.66;5023215;28;20241;-66
2023/07/22 08:59:27;;;;;;;3.42;3.13;;;;;;;-141.84;47.83;21712.53;5024159;28;20245;-65
2023/07/22 09:01:56;;;;;;;4.70;3.70;;;;;;;-141.84;47.07;21730.81;5022458;28;20251;-65
2023/07/22 09:04:26;;;;;;;3.67;3.30;;;;;;;-141.84;47.23;21606.78;5023461;28;20292;-66
2023/07/22 09:06:56;;;;;;;4.30;3.90;;;;;;;-141.84;47.92;21598.66;5021820;28;20253;-65
2023/07/22 09:09:25;;;;;;;4.28;3.88;;;;;;;-141.84;48.15;21627.13;5024035;28;20257;-65
2023/07/22 09:11:55;;;;;;;5.57;3.60;;;;;;;-141.84;48.14;21616.97;5023925;28;20267;-65
2023/07/22 09:14:24;;;;;;;3.63;3.33;;;;;;;-141.84;47.13;21643.38;5024065;28;20214;-65
2023/07/22 09:17:04;;;;;;;5.80;4.00;;;;;;;-141.84;46.25;21661.69;5015734;28;20230;-66
2023/07/22 09:19:34;;;;;;;3.97;3.58;;;;;;;-141.84;46.85;21639.31;5002247;28;20257;-67
2023/07/22 09:22:03;;;;;;;4.05;3.38;;;;;;;-141.84;48.35;21659.66;4995942;28;20262;-65
2023/07/22 09:24:31;;;;;;;5.55;3.88;;;;;;;-141.84;48.12;21712.53;5002972;28;20272;-65
2023/07/22 09:27:00;;;;;;;6.05;3.50;;;;;;;-141.84;45.82;21802.00;5003121;28;20222;-66
2023/07/22 09:29:37;;;;;;;4.15;3.47;;;;;;;-141.84;45.33;21865.03;5023048;28;20214;-66
2023/07/22 09:32:06;;;;;;;4.95;3.30;;;;;;;-141.84;45.05;21899.59;5014486;28;20244;-65
2023/07/22 09:34:36;;;;;;;3.55;3.25;;;;;;;-141.84;44.98;21858.94;5023363;28;20325;-66
2023/07/22 09:37:05;;;;;;;3.88;3.10;;;;;;;-141.84;46.60;21814.19;5023081;28;20665;-65
2023/07/22 09:39:35;;;;;;;5.93;3.40;;;;;;;-141.84;44.34;21840.63;5022924;28;20804;-65
2023/07/22 09:42:05;;;;;;;5.28;3.30;;;;;;;-141.84;44.95;21948.41;5015571;28;20229;-66
2023/07/22 09:44:36;;;;;;;3.15;2.95;;;;;;;-141.84;44.27;21997.19;5023248;28;20214;-64
2023/07/22 09:47:09;;;;;;;4.05;3.50;;;;;;;-141.84;44.71;22021.59;5016733;28;20773;-65
2023/07/22 09:49:43;;;;;;;4.30;3.40;;;;;;;-141.84;45.00;22035.84;5013400;28;20329;-65
2023/07/22 09:52:13;;;;;;;3.92;3.33;;;;;;;-141.84;44.71;22145.66;5015157;28;20242;-64
2023/07/22 09:54:49;;;;;;;3.88;3.40;;;;;;;-141.84;43.21;22135.47;5020676;28;20229;-68
2023/07/22 09:57:18;;;;;;;3.58;3.28;;;;;;;-141.84;44.15;22147.69;5015719;28;20602;-67
2023/07/22 09:59:50;;;;;;;4.13;3.45;;;;;;;-141.84;43.59;22208.69;5020742;28;20202;-67
2023/07/22 10:02:21;;;;;;;4.50;3.33;;;;;;;-141.84;43.31;22229.03;5011877;28;20324;-67
2023/07/22 10:04:54;;;;;;;4.38;3.22;;;;;;;-141.84;43.85;22141.59;5018225;28;20230;-68
2023/07/22 10:07:23;;;;;;;3.65;3.17;;;;;;;-141.84;42.75;22111.09;5016799;28;20257;-63
2023/07/22 10:09:54;;;;;;;4.45;3.38;;;;;;;-141.84;43.56;22102.94;5019554;28;20567;-63
2023/07/22 10:12:22;;;;;;;4.15;3.67;;;;;;;-141.84;43.96;22084.66;5018210;28;20320;-62
2023/07/22 10:14:52;;;;;;;4.05;3.42;;;;;;;-141.84;44.55;22094.81;5020396;28;20790;-61
2023/07/22 10:17:22;;;;;;;3.50;3.20;;;;;;;-141.84;42.66;22143.63;5021038;28;20261;-60
2023/07/22 10:19:54;;;;;;;3.38;3.08;;;;;;;-141.84;44.04;22151.75;5021367;28;21048;-60
2023/07/22 10:22:22;;;;;;;3.85;3.30;;;;;;;-141.84;44.12;22115.16;5019416;28;20230;-59
2023/07/22 10:24:53;;;;;;;4.10;3.70;;;;;;;-141.84;44.37;22137.50;5018393;28;20320;-62
2023/07/22 10:27:22;;;;;;;3.53;3.22;;;;;;;-141.84;43.10;22143.63;5020522;28;20956;-62
2023/07/22 10:29:50;;;;;;;4.28;3.42;;;;;;;-141.84;43.13;22196.50;5021838;28;20237;-63
2023/07/22 10:32:19;;;;;;;4.20;3.55;;;;;;;-141.84;42.06;22326.66;5025240;28;20253;-62
2023/07/22 10:34:47;;;;;;;7.43;3.60;;;;;;;-141.84;41.59;22399.84;5019001;28;20335;-63
2023/07/22 10:37:21;;;;;;;3.60;3.30;;;;;;;-141.84;41.29;22273.78;5025122;28;20627;-62
2023/07/22 10:39:50;;;;;;;4.18;3.17;;;;;;;-141.84;42.42;22172.09;5025031;28;20763;-62
2023/07/22 10:42:26;;;;;;;4.47;3.67;;;;;;;-141.84;43.55;22176.16;5023863;28;20288;-61
2023/07/22 10:44:54;;;;;;;3.72;3.30;;;;;;;-141.84;42.35;22198.53;5025242;28;20201;-62
2023/07/22 10:47:37;;;;;;;4.50;3.92;;;;;;;-141.84;41.80;22328.69;5022089;28;20233;-62
2023/07/22 10:50:09;;;;;;;4.07;3.30;;;;;;;-141.84;41.55;22403.94;5024188;28;20234;-62
2023/07/22 10:52:44;;;;;;;3.17;2.88;;;;;;;-141.84;41.13;22381.56;5015784;28;20706;-63
2023/07/22 10:55:17;;;;;;;3.25;2.95;;;;;;;-141.84;41.36;22371.38;5024581;28;20237;-62
2023/07/22 10:57:55;;;;;;;3.13;2.80;;;;;;;-141.84;41.39;22346.97;5023542;28;20295;-62
2023/07/22 11:00:29;;;;;;;3.17;2.60;;;;;;;-141.84;41.75;22310.38;5017404;28;20198;-61
2023/07/22 11:03:12;;;;;;;3.20;2.65;;;;;;;-141.84;41.32;22334.78;5024428;28;20241;-61
2023/07/22 11:05:52;;;;;;;3.88;2.78;;;;;;;-141.84;41.58;22357.16;4999925;28;20230;-61
2023/07/22 11:08:37;;;;;;;3.67;3.22;;;;;;;-141.84;40.83;22326.66;5016483;28;20803;-61
2023/07/22 11:11:06;;;;;;;3.08;2.80;;;;;;;-141.84;41.38;22294.09;5023861;28;20314;-61
2023/07/22 11:13:40;;;;;;;3.83;3.08;;;;;;;-141.84;41.39;22346.97;5023858;28;20262;-62
2023/07/22 11:16:12;;;;;;;3.38;2.97;;;;;;;-141.84;40.61;22428.31;5020794;28;20704;-62
2023/07/22 11:18:42;;;;;;;3.60;3.30;;;;;;;-141.84;40.29;22491.38;5015057;28;20227;-61
2023/07/22 11:21:12;;;;;;;2.80;2.50;;;;;;;-141.84;39.57;22511.72;5024754;28;20305;-61
2023/07/22 11:23:42;;;;;;;3.20;2.90;;;;;;;-141.84;39.16;22530.00;5022264;28;20218;-62
2023/07/22 11:26:11;;;;;;;2.90;2.60;;;;;;;-141.84;38.93;22519.84;5024065;28;20312;-62